sensor_id;sensor_type;location;lat;lon;timestamp;P1;durP1;ratioP1;P2;durP2;ratioP2
4547;SDS011;2286;51.570;7.090;2024-02-04T00:02:07;35.60;;;27.40;;
4547;SDS011;2286;51.570;7.090;2024-02-04T00:04:40;34.90;;;27.90;;
4547;SDS011;2286;51.570;7.090;2024-02-04T00:07:07;35.20;;;29.00;;
4547;SDS011;2286;51.570;7.090;2024-02-04T00:09:33;37.10;;;27.80;;
4547;SDS011;2286;51.570;7.090;2024-02-04T00:12:00;32.77;;;27.70;;
4547;SDS011;2286;51.570;7.090;2024-02-04T00:14:28;31.23;;;26.70;;
4547;SDS011;2286;51.570;7.090;2024-02-04T00:16:55;33.27;;;26.80;;
4547;SDS011;2286;51.570;7.090;2024-02-04T00:19:22;31.50;;;25.20;;
4547;SDS011;2286;51.570;7.090;2024-02-04T00:21:50;35.63;;;26.87;;
4547;SDS011;2286;51.570;7.090;2024-02-04T00:24:17;31.97;;;25.20;;
4547;SDS011;2286;51.570;7.090;2024-02-04T00:26:44;31.20;;;23.60;;
4547;SDS011;2286;51.570;7.090;2024-02-04T00:29:11;32.97;;;23.90;;
4547;SDS011;2286;51.570;7.090;2024-02-04T00:31:38;23.27;;;20.77;;
4547;SDS011;2286;51.570;7.090;2024-02-04T00:34:05;22.30;;;18.90;;
4547;SDS011;2286;51.570;7.090;2024-02-04T00:36:32;22.53;;;19.50;;
4547;SDS011;2286;51.570;7.090;2024-02-04T00:39:00;22.67;;;18.73;;
4547;SDS011;2286;51.570;7.090;2024-02-04T00:41:26;23.43;;;19.50;;
4547;SDS011;2286;51.570;7.090;2024-02-04T00:43:53;19.73;;;16.93;;
4547;SDS011;2286;51.570;7.090;2024-02-04T00:46:20;20.30;;;17.20;;
4547;SDS011;2286;51.570;7.090;2024-02-04T00:48:47;18.07;;;14.90;;
4547;SDS011;2286;51.570;7.090;2024-02-04T00:51:13;18.27;;;16.27;;
4547;SDS011;2286;51.570;7.090;2024-02-04T00:53:42;16.70;;;13.23;;
4547;SDS011;2286;51.570;7.090;2024-02-04T00:56:10;0.50;;;0.50;;
4547;SDS011;2286;51.570;7.090;2024-02-04T00:58:37;0.30;;;0.30;;
4547;SDS011;2286;51.570;7.090;2024-02-04T01:01:04;0.30;;;0.30;;
4547;SDS011;2286;51.570;7.090;2024-02-04T01:03:31;0.30;;;0.30;;
4547;SDS011;2286;51.570;7.090;2024-02-04T01:05:58;0.30;;;0.30;;
4547;SDS011;2286;51.570;7.090;2024-02-04T01:08:25;0.30;;;0.30;;
4547;SDS011;2286;51.570;7.090;2024-02-04T01:10:51;0.30;;;0.30;;
4547;SDS011;2286;51.570;7.090;2024-02-04T01:13:20;0.60;;;0.60;;
4547;SDS011;2286;51.570;7.090;2024-02-04T01:15:46;0.30;;;0.30;;
4547;SDS011;2286;51.570;7.090;2024-02-04T01:18:13;3.13;;;1.30;;
4547;SDS011;2286;51.570;7.090;2024-02-04T01:20:40;0.30;;;0.30;;
4547;SDS011;2286;51.570;7.090;2024-02-04T01:23:07;0.30;;;0.30;;
4547;SDS011;2286;51.570;7.090;2024-02-04T01:25:35;0.30;;;0.30;;
4547;SDS011;2286;51.570;7.090;2024-02-04T01:28:02;0.30;;;0.30;;
4547;SDS011;2286;51.570;7.090;2024-02-04T01:30:31;0.30;;;0.30;;
4547;SDS011;2286;51.570;7.090;2024-02-04T01:32:57;0.30;;;0.30;;
4547;SDS011;2286;51.570;7.090;2024-02-04T01:35:24;0.30;;;0.30;;
4547;SDS011;2286;51.570;7.090;2024-02-04T01:37:51;0.30;;;0.30;;
4547;SDS011;2286;51.570;7.090;2024-02-04T01:40:18;0.30;;;0.30;;
4547;SDS011;2286;51.570;7.090;2024-02-04T01:42:44;0.30;;;0.30;;
4547;SDS011;2286;51.570;7.090;2024-02-04T01:45:11;1.10;;;1.03;;
4547;SDS011;2286;51.570;7.090;2024-02-04T01:47:39;0.30;;;0.30;;
4547;SDS011;2286;51.570;7.090;2024-02-04T01:50:06;1.13;;;1.13;;
4547;SDS011;2286;51.570;7.090;2024-02-04T01:52:35;0.30;;;0.30;;
4547;SDS011;2286;51.570;7.090;2024-02-04T01:55:04;0.60;;;0.60;;
4547;SDS011;2286;51.570;7.090;2024-02-04T01:57:31;0.40;;;0.30;;
4547;SDS011;2286;51.570;7.090;2024-02-04T01:59:59;0.30;;;0.30;;
4547;SDS011;2286;51.570;7.090;2024-02-04T02:02:27;0.40;;;0.40;;
4547;SDS011;2286;51.570;7.090;2024-02-04T02:04:55;0.30;;;0.30;;
4547;SDS011;2286;51.570;7.090;2024-02-04T02:07:23;0.40;;;0.40;;
4547;SDS011;2286;51.570;7.090;2024-02-04T02:09:52;0.40;;;0.40;;
4547;SDS011;2286;51.570;7.090;2024-02-04T02:12:19;0.30;;;0.30;;
4547;SDS011;2286;51.570;7.090;2024-02-04T02:14:54;0.30;;;0.30;;
4547;SDS011;2286;51.570;7.090;2024-02-04T02:17:24;0.30;;;0.30;;
4547;SDS011;2286;51.570;7.090;2024-02-04T02:19:59;0.40;;;0.40;;
4547;SDS011;2286;51.570;7.090;2024-02-04T02:22:35;0.30;;;0.30;;
4547;SDS011;2286;51.570;7.090;2024-02-04T02:25:12;0.30;;;0.30;;
4547;SDS011;2286;51.570;7.090;2024-02-04T02:27:45;0.30;;;0.30;;
4547;SDS011;2286;51.570;7.090;2024-02-04T02:30:13;0.70;;;0.70;;
4547;SDS011;2286;51.570;7.090;2024-02-04T02:32:40;0.30;;;0.30;;
4547;SDS011;2286;51.570;7.090;2024-02-04T02:35:07;0.30;;;0.30;;
4547;SDS011;2286;51.570;7.090;2024-02-04T02:37:36;0.30;;;0.30;;
4547;SDS011;2286;51.570;7.090;2024-02-04T02:40:08;0.60;;;0.60;;
4547;SDS011;2286;51.570;7.090;2024-02-04T02:42:42;1.17;;;1.07;;
4547;SDS011;2286;51.570;7.090;2024-02-04T02:45:12;0.30;;;0.30;;
4547;SDS011;2286;51.570;7.090;2024-02-04T02:47:39;0.30;;;0.30;;
4547;SDS011;2286;51.570;7.090;2024-02-04T02:50:08;0.30;;;0.30;;
4547;SDS011;2286;51.570;7.090;2024-02-04T02:52:35;3.67;;;1.67;;
4547;SDS011;2286;51.570;7.090;2024-02-04T02:55:02;0.30;;;0.30;;
4547;SDS011;2286;51.570;7.090;2024-02-04T02:57:30;1.17;;;1.17;;
4547;SDS011;2286;51.570;7.090;2024-02-04T02:59:57;0.30;;;0.30;;
4547;SDS011;2286;51.570;7.090;2024-02-04T03:02:24;0.30;;;0.30;;
4547;SDS011;2286;51.570;7.090;2024-02-04T03:04:50;0.40;;;0.40;;
4547;SDS011;2286;51.570;7.090;2024-02-04T03:07:17;0.30;;;0.30;;
4547;SDS011;2286;51.570;7.090;2024-02-04T03:09:44;0.30;;;0.30;;
4547;SDS011;2286;51.570;7.090;2024-02-04T03:12:11;0.40;;;0.30;;
4547;SDS011;2286;51.570;7.090;2024-02-04T03:14:39;0.40;;;0.30;;
4547;SDS011;2286;51.570;7.090;2024-02-04T03:17:06;0.30;;;0.30;;
4547;SDS011;2286;51.570;7.090;2024-02-04T03:19:33;0.53;;;0.53;;
4547;SDS011;2286;51.570;7.090;2024-02-04T03:21:59;0.30;;;0.30;;
4547;SDS011;2286;51.570;7.090;2024-02-04T03:24:26;0.40;;;0.40;;
4547;SDS011;2286;51.570;7.090;2024-02-04T03:26:53;0.50;;;0.50;;
4547;SDS011;2286;51.570;7.090;2024-02-04T03:29:20;0.30;;;0.30;;
4547;SDS011;2286;51.570;7.090;2024-02-04T03:31:48;0.40;;;0.40;;
4547;SDS011;2286;51.570;7.090;2024-02-04T03:34:14;0.30;;;0.30;;
4547;SDS011;2286;51.570;7.090;2024-02-04T03:36:41;0.30;;;0.30;;
4547;SDS011;2286;51.570;7.090;2024-02-04T03:39:08;0.30;;;0.30;;
4547;SDS011;2286;51.570;7.090;2024-02-04T03:41:35;0.40;;;0.40;;
4547;SDS011;2286;51.570;7.090;2024-02-04T03:44:02;0.70;;;0.70;;
4547;SDS011;2286;51.570;7.090;2024-02-04T03:46:29;0.37;;;0.37;;
4547;SDS011;2286;51.570;7.090;2024-02-04T03:48:57;0.30;;;0.30;;
4547;SDS011;2286;51.570;7.090;2024-02-04T03:51:24;0.30;;;0.30;;
4547;SDS011;2286;51.570;7.090;2024-02-04T03:53:51;0.73;;;0.70;;
4547;SDS011;2286;51.570;7.090;2024-02-04T03:56:18;0.60;;;0.60;;
4547;SDS011;2286;51.570;7.090;2024-02-04T03:58:44;0.40;;;0.30;;
4547;SDS011;2286;51.570;7.090;2024-02-04T04:01:11;0.70;;;0.70;;
4547;SDS011;2286;51.570;7.090;2024-02-04T04:03:39;0.90;;;0.90;;
4547;SDS011;2286;51.570;7.090;2024-02-04T04:06:07;0.30;;;0.30;;
4547;SDS011;2286;51.570;7.090;2024-02-04T04:08:34;1.87;;;1.77;;
4547;SDS011;2286;51.570;7.090;2024-02-04T04:11:01;0.30;;;0.30;;
4547;SDS011;2286;51.570;7.090;2024-02-04T04:13:28;0.60;;;0.60;;
4547;SDS011;2286;51.570;7.090;2024-02-04T04:15:57;0.30;;;0.30;;
4547;SDS011;2286;51.570;7.090;2024-02-04T04:18:23;0.30;;;0.30;;
4547;SDS011;2286;51.570;7.090;2024-02-04T04:20:50;0.77;;;0.77;;
4547;SDS011;2286;51.570;7.090;2024-02-04T04:23:18;0.30;;;0.30;;
4547;SDS011;2286;51.570;7.090;2024-02-04T04:25:45;0.30;;;0.30;;
4547;SDS011;2286;51.570;7.090;2024-02-04T04:28:12;0.90;;;0.90;;
4547;SDS011;2286;51.570;7.090;2024-02-04T04:30:38;0.40;;;0.30;;
4547;SDS011;2286;51.570;7.090;2024-02-04T04:33:05;0.40;;;0.40;;
4547;SDS011;2286;51.570;7.090;2024-02-04T04:35:33;0.30;;;0.30;;
4547;SDS011;2286;51.570;7.090;2024-02-04T04:38:00;0.30;;;0.30;;
4547;SDS011;2286;51.570;7.090;2024-02-04T04:40:28;0.40;;;0.40;;
4547;SDS011;2286;51.570;7.090;2024-02-04T04:42:55;1.03;;;1.03;;
4547;SDS011;2286;51.570;7.090;2024-02-04T04:45:21;0.80;;;0.80;;
4547;SDS011;2286;51.570;7.090;2024-02-04T04:47:48;0.30;;;0.30;;
4547;SDS011;2286;51.570;7.090;2024-02-04T04:50:15;0.40;;;0.40;;
4547;SDS011;2286;51.570;7.090;2024-02-04T04:52:42;0.57;;;0.57;;
4547;SDS011;2286;51.570;7.090;2024-02-04T04:55:08;1.13;;;0.90;;
4547;SDS011;2286;51.570;7.090;2024-02-04T04:57:36;0.40;;;0.30;;
4547;SDS011;2286;51.570;7.090;2024-02-04T05:00:04;0.30;;;0.30;;
4547;SDS011;2286;51.570;7.090;2024-02-04T05:02:34;1.80;;;0.97;;
4547;SDS011;2286;51.570;7.090;2024-02-04T05:05:01;0.30;;;0.30;;
4547;SDS011;2286;51.570;7.090;2024-02-04T05:07:28;3.13;;;2.10;;
4547;SDS011;2286;51.570;7.090;2024-02-04T05:09:55;1.63;;;0.60;;
4547;SDS011;2286;51.570;7.090;2024-02-04T05:12:22;0.30;;;0.30;;
4547;SDS011;2286;51.570;7.090;2024-02-04T05:14:50;0.30;;;0.30;;
4547;SDS011;2286;51.570;7.090;2024-02-04T05:17:17;0.30;;;0.30;;
4547;SDS011;2286;51.570;7.090;2024-02-04T05:19:44;0.30;;;0.30;;
4547;SDS011;2286;51.570;7.090;2024-02-04T05:22:10;0.30;;;0.30;;
4547;SDS011;2286;51.570;7.090;2024-02-04T05:24:37;0.30;;;0.30;;
4547;SDS011;2286;51.570;7.090;2024-02-04T05:27:04;0.30;;;0.30;;
4547;SDS011;2286;51.570;7.090;2024-02-04T05:29:31;0.30;;;0.30;;
4547;SDS011;2286;51.570;7.090;2024-02-04T05:31:59;0.30;;;0.30;;
4547;SDS011;2286;51.570;7.090;2024-02-04T05:34:26;0.30;;;0.30;;
4547;SDS011;2286;51.570;7.090;2024-02-04T05:36:52;0.97;;;0.97;;
4547;SDS011;2286;51.570;7.090;2024-02-04T05:39:19;0.40;;;0.30;;
4547;SDS011;2286;51.570;7.090;2024-02-04T05:41:48;0.30;;;0.30;;
4547;SDS011;2286;51.570;7.090;2024-02-04T05:44:15;1.23;;;1.13;;
4547;SDS011;2286;51.570;7.090;2024-02-04T05:46:42;0.53;;;0.53;;
4547;SDS011;2286;51.570;7.090;2024-02-04T05:49:10;0.30;;;0.30;;
4547;SDS011;2286;51.570;7.090;2024-02-04T05:51:37;0.30;;;0.30;;
4547;SDS011;2286;51.570;7.090;2024-02-04T05:54:05;0.30;;;0.30;;
4547;SDS011;2286;51.570;7.090;2024-02-04T05:56:32;1.00;;;0.87;;
4547;SDS011;2286;51.570;7.090;2024-02-04T05:58:58;2.00;;;1.90;;
4547;SDS011;2286;51.570;7.090;2024-02-04T06:01:25;2.10;;;2.00;;
4547;SDS011;2286;51.570;7.090;2024-02-04T06:03:52;0.33;;;0.33;;
4547;SDS011;2286;51.570;7.090;2024-02-04T06:06:20;2.70;;;2.50;;
4547;SDS011;2286;51.570;7.090;2024-02-04T06:08:46;0.30;;;0.30;;
4547;SDS011;2286;51.570;7.090;2024-02-04T06:11:14;0.57;;;0.57;;
4547;SDS011;2286;51.570;7.090;2024-02-04T06:13:41;0.60;;;0.60;;
4547;SDS011;2286;51.570;7.090;2024-02-04T06:16:09;1.07;;;1.03;;
4547;SDS011;2286;51.570;7.090;2024-02-04T06:18:37;1.87;;;1.17;;
4547;SDS011;2286;51.570;7.090;2024-02-04T06:21:04;0.30;;;0.30;;
4547;SDS011;2286;51.570;7.090;2024-02-04T06:23:32;0.30;;;0.30;;
4547;SDS011;2286;51.570;7.090;2024-02-04T06:25:59;0.40;;;0.40;;
4547;SDS011;2286;51.570;7.090;2024-02-04T06:28:26;0.30;;;0.30;;
4547;SDS011;2286;51.570;7.090;2024-02-04T06:30:53;0.77;;;0.77;;
4547;SDS011;2286;51.570;7.090;2024-02-04T06:33:20;0.30;;;0.30;;
4547;SDS011;2286;51.570;7.090;2024-02-04T06:35:48;0.70;;;0.70;;
4547;SDS011;2286;51.570;7.090;2024-02-04T06:38:15;1.47;;;1.37;;
4547;SDS011;2286;51.570;7.090;2024-02-04T06:40:43;0.40;;;0.40;;
4547;SDS011;2286;51.570;7.090;2024-02-04T06:43:10;0.30;;;0.30;;
4547;SDS011;2286;51.570;7.090;2024-02-04T06:45:37;0.40;;;0.40;;
4547;SDS011;2286;51.570;7.090;2024-02-04T06:48:04;0.83;;;0.83;;
4547;SDS011;2286;51.570;7.090;2024-02-04T06:50:32;0.30;;;0.30;;
4547;SDS011;2286;51.570;7.090;2024-02-04T06:52:59;0.40;;;0.30;;
4547;SDS011;2286;51.570;7.090;2024-02-04T06:55:25;0.30;;;0.30;;
4547;SDS011;2286;51.570;7.090;2024-02-04T06:57:53;0.30;;;0.30;;
4547;SDS011;2286;51.570;7.090;2024-02-04T07:00:20;0.30;;;0.30;;
4547;SDS011;2286;51.570;7.090;2024-02-04T07:02:47;0.30;;;0.30;;
4547;SDS011;2286;51.570;7.090;2024-02-04T07:05:14;0.30;;;0.30;;
4547;SDS011;2286;51.570;7.090;2024-02-04T07:07:41;0.40;;;0.40;;
4547;SDS011;2286;51.570;7.090;2024-02-04T07:10:08;4.20;;;2.30;;
4547;SDS011;2286;51.570;7.090;2024-02-04T07:12:35;1.10;;;1.10;;
4547;SDS011;2286;51.570;7.090;2024-02-04T07:15:03;0.50;;;0.50;;
4547;SDS011;2286;51.570;7.090;2024-02-04T07:17:30;0.73;;;0.73;;
4547;SDS011;2286;51.570;7.090;2024-02-04T07:19:57;0.47;;;0.47;;
4547;SDS011;2286;51.570;7.090;2024-02-04T07:22:24;0.67;;;0.67;;
4547;SDS011;2286;51.570;7.090;2024-02-04T07:24:51;0.40;;;0.40;;
4547;SDS011;2286;51.570;7.090;2024-02-04T07:27:17;0.40;;;0.40;;
4547;SDS011;2286;51.570;7.090;2024-02-04T07:29:44;0.30;;;0.30;;
4547;SDS011;2286;51.570;7.090;2024-02-04T07:32:13;0.30;;;0.30;;
4547;SDS011;2286;51.570;7.090;2024-02-04T07:34:40;0.50;;;0.50;;
4547;SDS011;2286;51.570;7.090;2024-02-04T07:37:07;0.30;;;0.30;;
4547;SDS011;2286;51.570;7.090;2024-02-04T07:39:34;1.53;;;1.53;;
4547;SDS011;2286;51.570;7.090;2024-02-04T07:42:01;0.50;;;0.50;;
4547;SDS011;2286;51.570;7.090;2024-02-04T07:44:27;0.70;;;0.70;;
4547;SDS011;2286;51.570;7.090;2024-02-04T07:46:54;0.30;;;0.30;;
4547;SDS011;2286;51.570;7.090;2024-02-04T07:49:23;0.30;;;0.30;;
4547;SDS011;2286;51.570;7.090;2024-02-04T07:51:49;0.30;;;0.30;;
4547;SDS011;2286;51.570;7.090;2024-02-04T07:54:16;1.03;;;1.03;;
4547;SDS011;2286;51.570;7.090;2024-02-04T07:56:43;0.30;;;0.30;;
4547;SDS011;2286;51.570;7.090;2024-02-04T07:59:10;0.30;;;0.30;;
4547;SDS011;2286;51.570;7.090;2024-02-04T08:01:37;0.30;;;0.30;;
4547;SDS011;2286;51.570;7.090;2024-02-04T08:04:04;0.30;;;0.30;;
4547;SDS011;2286;51.570;7.090;2024-02-04T08:06:35;0.30;;;0.30;;
4547;SDS011;2286;51.570;7.090;2024-02-04T08:09:02;1.07;;;1.07;;
4547;SDS011;2286;51.570;7.090;2024-02-04T08:11:29;0.30;;;0.30;;
4547;SDS011;2286;51.570;7.090;2024-02-04T08:13:56;0.30;;;0.30;;
4547;SDS011;2286;51.570;7.090;2024-02-04T08:16:23;0.30;;;0.30;;
4547;SDS011;2286;51.570;7.090;2024-02-04T08:18:50;0.30;;;0.30;;
4547;SDS011;2286;51.570;7.090;2024-02-04T08:21:16;0.50;;;0.50;;
4547;SDS011;2286;51.570;7.090;2024-02-04T08:23:45;0.40;;;0.40;;
4547;SDS011;2286;51.570;7.090;2024-02-04T08:26:11;0.30;;;0.30;;
4547;SDS011;2286;51.570;7.090;2024-02-04T08:28:39;0.40;;;0.40;;
4547;SDS011;2286;51.570;7.090;2024-02-04T08:31:05;0.40;;;0.40;;
4547;SDS011;2286;51.570;7.090;2024-02-04T08:33:32;0.30;;;0.30;;
4547;SDS011;2286;51.570;7.090;2024-02-04T08:35:59;0.30;;;0.30;;
4547;SDS011;2286;51.570;7.090;2024-02-04T08:38:26;0.30;;;0.30;;
4547;SDS011;2286;51.570;7.090;2024-02-04T08:40:54;0.30;;;0.30;;
4547;SDS011;2286;51.570;7.090;2024-02-04T08:43:21;0.30;;;0.30;;
4547;SDS011;2286;51.570;7.090;2024-02-04T08:45:47;0.30;;;0.30;;
4547;SDS011;2286;51.570;7.090;2024-02-04T08:48:14;0.93;;;0.93;;
4547;SDS011;2286;51.570;7.090;2024-02-04T08:50:41;0.87;;;0.87;;
4547;SDS011;2286;51.570;7.090;2024-02-04T08:53:08;0.30;;;0.30;;
4547;SDS011;2286;51.570;7.090;2024-02-04T08:55:34;0.30;;;0.30;;
4547;SDS011;2286;51.570;7.090;2024-02-04T08:58:03;0.30;;;0.30;;
4547;SDS011;2286;51.570;7.090;2024-02-04T09:00:30;0.40;;;0.40;;
4547;SDS011;2286;51.570;7.090;2024-02-04T09:02:57;0.30;;;0.30;;
4547;SDS011;2286;51.570;7.090;2024-02-04T09:05:23;0.40;;;0.40;;
4547;SDS011;2286;51.570;7.090;2024-02-04T09:07:50;0.30;;;0.30;;
4547;SDS011;2286;51.570;7.090;2024-02-04T09:10:20;0.30;;;0.30;;
4547;SDS011;2286;51.570;7.090;2024-02-04T09:12:47;0.30;;;0.30;;
4547;SDS011;2286;51.570;7.090;2024-02-04T09:15:15;0.30;;;0.30;;
4547;SDS011;2286;51.570;7.090;2024-02-04T09:17:42;0.30;;;0.30;;
4547;SDS011;2286;51.570;7.090;2024-02-04T09:20:09;0.30;;;0.30;;
4547;SDS011;2286;51.570;7.090;2024-02-04T09:22:37;1.90;;;1.80;;
4547;SDS011;2286;51.570;7.090;2024-02-04T09:25:17;0.30;;;0.30;;
4547;SDS011;2286;51.570;7.090;2024-02-04T09:27:47;0.30;;;0.30;;
4547;SDS011;2286;51.570;7.090;2024-02-04T09:30:16;0.40;;;0.40;;
4547;SDS011;2286;51.570;7.090;2024-02-04T09:32:42;0.30;;;0.30;;
4547;SDS011;2286;51.570;7.090;2024-02-04T09:35:09;0.30;;;0.30;;
4547;SDS011;2286;51.570;7.090;2024-02-04T09:37:36;0.30;;;0.30;;
4547;SDS011;2286;51.570;7.090;2024-02-04T09:40:03;0.30;;;0.30;;
4547;SDS011;2286;51.570;7.090;2024-02-04T09:42:31;0.30;;;0.30;;
4547;SDS011;2286;51.570;7.090;2024-02-04T09:44:58;0.30;;;0.30;;
4547;SDS011;2286;51.570;7.090;2024-02-04T09:47:26;0.40;;;0.30;;
4547;SDS011;2286;51.570;7.090;2024-02-04T09:49:53;0.30;;;0.30;;
4547;SDS011;2286;51.570;7.090;2024-02-04T09:52:21;0.30;;;0.30;;
4547;SDS011;2286;51.570;7.090;2024-02-04T09:54:55;0.30;;;0.30;;
4547;SDS011;2286;51.570;7.090;2024-02-04T09:57:24;0.30;;;0.30;;
4547;SDS011;2286;51.570;7.090;2024-02-04T09:59:51;0.30;;;0.30;;
4547;SDS011;2286;51.570;7.090;2024-02-04T10:02:18;2.30;;;1.70;;
4547;SDS011;2286;51.570;7.090;2024-02-04T10:04:47;0.30;;;0.30;;
4547;SDS011;2286;51.570;7.090;2024-02-04T10:07:14;0.30;;;0.30;;
4547;SDS011;2286;51.570;7.090;2024-02-04T10:09:42;0.30;;;0.30;;
4547;SDS011;2286;51.570;7.090;2024-02-04T10:12:09;0.37;;;0.37;;
4547;SDS011;2286;51.570;7.090;2024-02-04T10:14:36;0.30;;;0.30;;
4547;SDS011;2286;51.570;7.090;2024-02-04T10:17:03;0.30;;;0.30;;
4547;SDS011;2286;51.570;7.090;2024-02-04T10:19:30;0.30;;;0.30;;
4547;SDS011;2286;51.570;7.090;2024-02-04T10:22:00;0.60;;;0.60;;
4547;SDS011;2286;51.570;7.090;2024-02-04T10:24:27;0.30;;;0.30;;
4547;SDS011;2286;51.570;7.090;2024-02-04T10:26:54;1.33;;;1.23;;
4547;SDS011;2286;51.570;7.090;2024-02-04T10:29:21;0.30;;;0.30;;
4547;SDS011;2286;51.570;7.090;2024-02-04T10:31:48;0.30;;;0.30;;
4547;SDS011;2286;51.570;7.090;2024-02-04T10:34:18;0.30;;;0.30;;
4547;SDS011;2286;51.570;7.090;2024-02-04T10:36:46;0.30;;;0.30;;
4547;SDS011;2286;51.570;7.090;2024-02-04T10:39:14;0.30;;;0.30;;
4547;SDS011;2286;51.570;7.090;2024-02-04T10:41:42;0.30;;;0.30;;
4547;SDS011;2286;51.570;7.090;2024-02-04T10:44:15;0.30;;;0.30;;
4547;SDS011;2286;51.570;7.090;2024-02-04T10:46:43;0.30;;;0.30;;
4547;SDS011;2286;51.570;7.090;2024-02-04T10:49:13;0.30;;;0.30;;
4547;SDS011;2286;51.570;7.090;2024-02-04T10:51:41;0.30;;;0.30;;
4547;SDS011;2286;51.570;7.090;2024-02-04T10:54:08;0.30;;;0.30;;
4547;SDS011;2286;51.570;7.090;2024-02-04T10:56:41;0.30;;;0.30;;
4547;SDS011;2286;51.570;7.090;2024-02-04T10:59:09;0.30;;;0.30;;
4547;SDS011;2286;51.570;7.090;2024-02-04T11:01:37;0.30;;;0.30;;
4547;SDS011;2286;51.570;7.090;2024-02-04T11:04:05;0.30;;;0.30;;
4547;SDS011;2286;51.570;7.090;2024-02-04T11:06:32;0.40;;;0.30;;
4547;SDS011;2286;51.570;7.090;2024-02-04T11:09:00;0.30;;;0.30;;
4547;SDS011;2286;51.570;7.090;2024-02-04T11:11:28;0.30;;;0.30;;
4547;SDS011;2286;51.570;7.090;2024-02-04T11:13:58;0.30;;;0.30;;
4547;SDS011;2286;51.570;7.090;2024-02-04T11:16:31;0.40;;;0.40;;
4547;SDS011;2286;51.570;7.090;2024-02-04T11:19:16;0.30;;;0.30;;
4547;SDS011;2286;51.570;7.090;2024-02-04T11:24:48;0.30;;;0.30;;
4547;SDS011;2286;51.570;7.090;2024-02-04T11:27:37;0.60;;;0.60;;
4547;SDS011;2286;51.570;7.090;2024-02-04T11:30:07;0.30;;;0.30;;
4547;SDS011;2286;51.570;7.090;2024-02-04T11:32:35;0.30;;;0.30;;
4547;SDS011;2286;51.570;7.090;2024-02-04T11:35:01;0.30;;;0.30;;
4547;SDS011;2286;51.570;7.090;2024-02-04T11:37:32;0.40;;;0.40;;
4547;SDS011;2286;51.570;7.090;2024-02-04T11:40:00;0.30;;;0.30;;
4547;SDS011;2286;51.570;7.090;2024-02-04T11:42:31;0.30;;;0.30;;
4547;SDS011;2286;51.570;7.090;2024-02-04T11:45:07;0.30;;;0.30;;
4547;SDS011;2286;51.570;7.090;2024-02-04T11:47:34;0.30;;;0.30;;
4547;SDS011;2286;51.570;7.090;2024-02-04T11:50:04;9.73;;;5.53;;
4547;SDS011;2286;51.570;7.090;2024-02-04T11:52:31;6.70;;;5.40;;
4547;SDS011;2286;51.570;7.090;2024-02-04T11:54:58;7.90;;;6.30;;
4547;SDS011;2286;51.570;7.090;2024-02-04T11:57:25;14.03;;;6.40;;
4547;SDS011;2286;51.570;7.090;2024-02-04T11:59:53;7.83;;;6.60;;
4547;SDS011;2286;51.570;7.090;2024-02-04T12:02:22;10.70;;;7.10;;
4547;SDS011;2286;51.570;7.090;2024-02-04T12:04:48;7.30;;;6.60;;
4547;SDS011;2286;51.570;7.090;2024-02-04T12:07:16;8.30;;;6.07;;
4547;SDS011;2286;51.570;7.090;2024-02-04T12:09:44;6.30;;;5.70;;
4547;SDS011;2286;51.570;7.090;2024-02-04T12:12:11;5.77;;;5.13;;
4547;SDS011;2286;51.570;7.090;2024-02-04T12:14:38;6.00;;;5.40;;
4547;SDS011;2286;51.570;7.090;2024-02-04T12:17:06;5.87;;;5.37;;
4547;SDS011;2286;51.570;7.090;2024-02-04T12:19:36;4.80;;;4.40;;
4547;SDS011;2286;51.570;7.090;2024-02-04T12:22:03;5.20;;;4.13;;
4547;SDS011;2286;51.570;7.090;2024-02-04T12:24:34;4.57;;;4.17;;
4547;SDS011;2286;51.570;7.090;2024-02-04T12:27:01;7.23;;;5.00;;
4547;SDS011;2286;51.570;7.090;2024-02-04T12:29:29;6.90;;;4.83;;
4547;SDS011;2286;51.570;7.090;2024-02-04T12:31:59;8.40;;;5.57;;
4547;SDS011;2286;51.570;7.090;2024-02-04T12:34:26;8.17;;;6.37;;
4547;SDS011;2286;51.570;7.090;2024-02-04T12:36:58;8.50;;;7.27;;
4547;SDS011;2286;51.570;7.090;2024-02-04T12:39:25;9.13;;;8.03;;
4547;SDS011;2286;51.570;7.090;2024-02-04T12:41:52;8.83;;;8.03;;
4547;SDS011;2286;51.570;7.090;2024-02-04T12:44:19;0.30;;;0.30;;
4547;SDS011;2286;51.570;7.090;2024-02-04T12:46:45;0.30;;;0.30;;
4547;SDS011;2286;51.570;7.090;2024-02-04T12:49:18;0.40;;;0.30;;
4547;SDS011;2286;51.570;7.090;2024-02-04T12:51:45;0.63;;;0.63;;
4547;SDS011;2286;51.570;7.090;2024-02-04T12:54:13;1.07;;;1.07;;
4547;SDS011;2286;51.570;7.090;2024-02-04T12:56:44;0.30;;;0.30;;
4547;SDS011;2286;51.570;7.090;2024-02-04T12:59:11;0.30;;;0.30;;
4547;SDS011;2286;51.570;7.090;2024-02-04T13:01:38;1.07;;;1.07;;
4547;SDS011;2286;51.570;7.090;2024-02-04T13:04:05;0.30;;;0.30;;
4547;SDS011;2286;51.570;7.090;2024-02-04T13:06:37;0.40;;;0.40;;
4547;SDS011;2286;51.570;7.090;2024-02-04T13:09:04;0.30;;;0.30;;
4547;SDS011;2286;51.570;7.090;2024-02-04T13:11:33;0.30;;;0.30;;
4547;SDS011;2286;51.570;7.090;2024-02-04T13:14:00;0.40;;;0.40;;
4547;SDS011;2286;51.570;7.090;2024-02-04T13:16:27;0.50;;;0.50;;
4547;SDS011;2286;51.570;7.090;2024-02-04T13:18:55;0.30;;;0.30;;
4547;SDS011;2286;51.570;7.090;2024-02-04T13:21:22;0.40;;;0.40;;
4547;SDS011;2286;51.570;7.090;2024-02-04T13:23:50;0.30;;;0.30;;
4547;SDS011;2286;51.570;7.090;2024-02-04T13:26:16;0.30;;;0.30;;
4547;SDS011;2286;51.570;7.090;2024-02-04T13:28:45;0.30;;;0.30;;
4547;SDS011;2286;51.570;7.090;2024-02-04T13:31:12;1.70;;;1.70;;
4547;SDS011;2286;51.570;7.090;2024-02-04T13:33:39;0.30;;;0.30;;
4547;SDS011;2286;51.570;7.090;2024-02-04T13:36:06;0.30;;;0.30;;
4547;SDS011;2286;51.570;7.090;2024-02-04T13:38:33;0.30;;;0.30;;
4547;SDS011;2286;51.570;7.090;2024-02-04T13:41:00;0.30;;;0.30;;
4547;SDS011;2286;51.570;7.090;2024-02-04T13:43:29;0.30;;;0.30;;
4547;SDS011;2286;51.570;7.090;2024-02-04T13:45:57;0.30;;;0.30;;
4547;SDS011;2286;51.570;7.090;2024-02-04T13:48:25;0.30;;;0.30;;
4547;SDS011;2286;51.570;7.090;2024-02-04T13:50:52;0.30;;;0.30;;
4547;SDS011;2286;51.570;7.090;2024-02-04T13:53:19;0.30;;;0.30;;
4547;SDS011;2286;51.570;7.090;2024-02-04T13:55:46;0.30;;;0.30;;
4547;SDS011;2286;51.570;7.090;2024-02-04T13:58:12;0.30;;;0.30;;
4547;SDS011;2286;51.570;7.090;2024-02-04T14:00:39;0.30;;;0.30;;
4547;SDS011;2286;51.570;7.090;2024-02-04T14:03:08;0.30;;;0.30;;
4547;SDS011;2286;51.570;7.090;2024-02-04T14:05:35;0.30;;;0.30;;
4547;SDS011;2286;51.570;7.090;2024-02-04T14:08:01;0.30;;;0.30;;
4547;SDS011;2286;51.570;7.090;2024-02-04T14:10:28;0.30;;;0.30;;
4547;SDS011;2286;51.570;7.090;2024-02-04T14:12:55;0.30;;;0.30;;
4547;SDS011;2286;51.570;7.090;2024-02-04T14:15:22;0.30;;;0.30;;
4547;SDS011;2286;51.570;7.090;2024-02-04T14:17:49;0.30;;;0.30;;
4547;SDS011;2286;51.570;7.090;2024-02-04T14:20:17;0.30;;;0.30;;
4547;SDS011;2286;51.570;7.090;2024-02-04T14:22:44;0.30;;;0.30;;
4547;SDS011;2286;51.570;7.090;2024-02-04T14:25:11;0.30;;;0.30;;
4547;SDS011;2286;51.570;7.090;2024-02-04T14:27:38;0.30;;;0.30;;
4547;SDS011;2286;51.570;7.090;2024-02-04T14:30:05;0.30;;;0.30;;
4547;SDS011;2286;51.570;7.090;2024-02-04T14:32:33;0.30;;;0.30;;
4547;SDS011;2286;51.570;7.090;2024-02-04T14:35:00;0.40;;;0.40;;
4547;SDS011;2286;51.570;7.090;2024-02-04T14:37:31;0.30;;;0.30;;
4547;SDS011;2286;51.570;7.090;2024-02-04T14:39:58;0.30;;;0.30;;
4547;SDS011;2286;51.570;7.090;2024-02-04T14:42:25;0.57;;;0.57;;
4547;SDS011;2286;51.570;7.090;2024-02-04T14:44:52;0.30;;;0.30;;
4547;SDS011;2286;51.570;7.090;2024-02-04T14:47:19;0.30;;;0.30;;
4547;SDS011;2286;51.570;7.090;2024-02-04T14:49:46;0.30;;;0.30;;
4547;SDS011;2286;51.570;7.090;2024-02-04T14:52:13;0.30;;;0.30;;
4547;SDS011;2286;51.570;7.090;2024-02-04T14:54:44;0.30;;;0.30;;
4547;SDS011;2286;51.570;7.090;2024-02-04T14:57:11;0.57;;;0.57;;
4547;SDS011;2286;51.570;7.090;2024-02-04T14:59:38;0.30;;;0.30;;
4547;SDS011;2286;51.570;7.090;2024-02-04T15:02:05;0.30;;;0.30;;
4547;SDS011;2286;51.570;7.090;2024-02-04T15:04:33;0.30;;;0.30;;
4547;SDS011;2286;51.570;7.090;2024-02-04T15:07:00;0.30;;;0.30;;
4547;SDS011;2286;51.570;7.090;2024-02-04T15:09:30;0.30;;;0.30;;
4547;SDS011;2286;51.570;7.090;2024-02-04T15:11:59;0.30;;;0.30;;
4547;SDS011;2286;51.570;7.090;2024-02-04T15:14:27;0.30;;;0.30;;
4547;SDS011;2286;51.570;7.090;2024-02-04T15:16:54;0.30;;;0.30;;
4547;SDS011;2286;51.570;7.090;2024-02-04T15:19:22;0.30;;;0.30;;